Overview Statistics Trail Chart Weather Telemetry Raw packets
 

This is the latest recevied weather packets stored in our database for station/object WA1TYB-13. If no packets are shown the sender has not sent any weather packets the latest 10 day(s).

<< 84 85 86 87 88 89 90 >>
Time Temp. Humidity Pressure Rain* Wind** Luminosity Snow
1787992756 16.67° C 70% 1016.5 hPa 0 mm - 0 W/m² -
1787992455 16.11° C 72% 1016.5 hPa 0 mm - 0 W/m² -
1787992150 16.67° C 71% 1016.5 hPa 0 mm - 0 W/m² -
1787991849 16.67° C 70% 1016.8 hPa 0 mm - 0 W/m² -
1787991544 16.67° C 70% 1016.6 hPa 0 mm - 0 W/m² -
1787991241 16.67° C 69% 1016.6 hPa 0 mm - 0 W/m² -
1787990934 17.22° C 68% 1016.8 hPa 0 mm - 0 W/m² -
1787990630 17.22° C 67% 1016.8 hPa 0 mm - 0 W/m² -
1787990329 16.67° C 70% 1016.7 hPa 0 mm - 0 W/m² -
1787990024 16.67° C 71% 1016.5 hPa 0 mm - 0 W/m² -
1787989723 16.67° C 72% 1016.5 hPa 0 mm - 0 W/m² -
1787989418 16.67° C 71% 1016.7 hPa 0 mm - 0 W/m² -
1787989117 17.78° C 67% 1016.7 hPa 0 mm - 0 W/m² -
1787988815 17.22° C 66% 1016.5 hPa 0 mm - 0 W/m² -
1787988512 17.22° C 66% 1016.3 hPa 0 mm - 0 W/m² -
1787988212 17.22° C 67% 1016.7 hPa 0 mm - 0 W/m² -
1787987908 17.78° C 66% 1016.3 hPa 0 mm - 0 W/m² -
1787987608 18.33° C 63% 1016.5 hPa 0 mm - 0 W/m² -
1787987303 18.33° C 60% 1016.1 hPa 0 mm - 0 W/m² -
1787987010 18.33° C 60% 1016.1 hPa 0 mm - 0 W/m² -
1787986698 18.33° C 60% 1016.3 hPa 0 mm - 0 W/m² -
1787986397 17.78° C 63% 1016.3 hPa 0 mm - 0 W/m² -
1787986097 17.78° C 63% 1016.5 hPa 0 mm - 0 W/m² -
1787985791 17.22° C 69% 1016.3 hPa 0 mm - 0 W/m² -
1787985491 16.67° C 71% 1016.3 hPa 0 mm - 0 W/m² -

* Rain latest hour (hover to see other rain measurements)
** Current wind speed in m/s (hover to see current wind gust speed)